sensor_id;sensor_type;location;lat;lon;timestamp;pressure;altitude;pressure_sealevel;temperature;humidity
13476;BME280;6810;63.824;20.288;2023-07-20T00:02:04;99975.56;;;15.59;66.30
13476;BME280;6810;63.824;20.288;2023-07-20T00:04:32;99987.84;;;15.62;66.04
13476;BME280;6810;63.824;20.288;2023-07-20T00:06:59;99985.44;;;15.59;66.32
13476;BME280;6810;63.824;20.288;2023-07-20T00:09:30;99991.94;;;15.56;66.30
13476;BME280;6810;63.824;20.288;2023-07-20T00:11:57;99986.84;;;15.53;66.52
13476;BME280;6810;63.824;20.288;2023-07-20T00:14:26;99989.69;;;15.52;66.29
13476;BME280;6810;63.824;20.288;2023-07-20T00:16:55;99994.47;;;15.48;66.50
13476;BME280;6810;63.824;20.288;2023-07-20T00:19:25;99989.38;;;15.45;66.63
13476;BME280;6810;63.824;20.288;2023-07-20T00:21:53;99999.56;;;15.42;66.64
13476;BME280;6810;63.824;20.288;2023-07-20T00:24:20;99993.63;;;15.38;67.13
13476;BME280;6810;63.824;20.288;2023-07-20T00:26:47;99993.72;;;15.37;67.21
13476;BME280;6810;63.824;20.288;2023-07-20T00:29:15;99989.59;;;15.33;66.97
13476;BME280;6810;63.824;20.288;2023-07-20T00:31:42;99993.28;;;15.32;67.31
13476;BME280;6810;63.824;20.288;2023-07-20T00:34:10;99954.47;;;15.06;67.23
13476;BME280;6810;63.824;20.288;2023-07-20T00:36:39;99954.75;;;15.03;67.29
13476;BME280;6810;63.824;20.288;2023-07-20T00:39:07;100000.31;;;15.23;67.27
13476;BME280;6810;63.824;20.288;2023-07-20T00:41:34;100000.59;;;15.20;67.14
13476;BME280;6810;63.824;20.288;2023-07-20T00:44:02;99989.28;;;15.17;67.65
13476;BME280;6810;63.824;20.288;2023-07-20T00:46:29;99994.91;;;15.14;67.23
13476;BME280;6810;63.824;20.288;2023-07-20T00:48:57;99997.88;;;15.11;67.96
13476;BME280;6810;63.824;20.288;2023-07-20T00:51:25;99985.00;;;15.05;67.61
13476;BME280;6810;63.824;20.288;2023-07-20T00:53:53;99990.63;;;15.02;67.58
13476;BME280;6810;63.824;20.288;2023-07-20T00:56:21;99997.97;;;15.00;67.62
13476;BME280;6810;63.824;20.288;2023-07-20T00:58:49;99992.00;;;14.96;68.03
13476;BME280;6810;63.824;20.288;2023-07-20T01:01:16;99995.81;;;14.94;67.80
13476;BME280;6810;63.824;20.288;2023-07-20T01:03:43;99999.63;;;14.91;68.08
13476;BME280;6810;63.824;20.288;2023-07-20T01:09:19;99992.94;;;14.86;67.86
13476;BME280;6810;63.824;20.288;2023-07-20T01:14:47;99997.16;;;14.79;67.96
13476;BME280;6810;63.824;20.288;2023-07-20T01:17:15;100003.53;;;14.78;68.19
13476;BME280;6810;63.824;20.288;2023-07-20T01:19:43;99994.88;;;14.74;68.17
13476;BME280;6810;63.824;20.288;2023-07-20T01:32:42;99992.53;;;14.60;68.53
13476;BME280;6810;63.824;20.288;2023-07-20T01:35:13;99995.47;;;14.57;68.75
13476;BME280;6810;63.824;20.288;2023-07-20T01:37:44;99997.56;;;14.54;68.83
13476;BME280;6810;63.824;20.288;2023-07-20T01:40:15;99999.69;;;14.50;68.69
13476;BME280;6810;63.824;20.288;2023-07-20T01:42:45;99992.88;;;14.46;69.36
13476;BME280;6810;63.824;20.288;2023-07-20T01:45:13;99991.09;;;14.36;68.81
13476;BME280;6810;63.824;20.288;2023-07-20T01:47:40;99989.28;;;14.36;69.28
13476;BME280;6810;63.824;20.288;2023-07-20T01:50:07;100000.16;;;14.35;69.32
13476;BME280;6810;63.824;20.288;2023-07-20T01:52:35;99984.34;;;14.21;69.60
13476;BME280;6810;63.824;20.288;2023-07-20T01:55:03;100002.34;;;14.30;69.36
13476;BME280;6810;63.824;20.288;2023-07-20T01:57:31;99996.63;;;14.23;69.58
13476;BME280;6810;63.824;20.288;2023-07-20T01:59:59;99997.63;;;14.22;69.41
13476;BME280;6810;63.824;20.288;2023-07-20T02:02:27;100005.78;;;14.21;69.25
13476;BME280;6810;63.824;20.288;2023-07-20T02:04:55;100004.78;;;14.22;70.10
13476;BME280;6810;63.824;20.288;2023-07-20T02:07:23;99996.31;;;14.17;70.02
13476;BME280;6810;63.824;20.288;2023-07-20T02:09:50;99993.63;;;14.17;69.93
13476;BME280;6810;63.824;20.288;2023-07-20T02:12:17;99998.72;;;14.20;69.94
13476;BME280;6810;63.824;20.288;2023-07-20T02:14:44;100000.69;;;14.18;70.49
13476;BME280;6810;63.824;20.288;2023-07-20T02:17:11;99992.16;;;14.13;70.04
13476;BME280;6810;63.824;20.288;2023-07-20T02:19:40;99987.81;;;14.12;70.00
13476;BME280;6810;63.824;20.288;2023-07-20T02:22:08;100001.94;;;14.14;70.11
13476;BME280;6810;63.824;20.288;2023-07-20T02:24:35;99999.38;;;14.12;70.65
13476;BME280;6810;63.824;20.288;2023-07-20T02:27:02;100000.47;;;14.10;70.10
13476;BME280;6810;63.824;20.288;2023-07-20T02:29:29;100004.13;;;14.09;70.39
13476;BME280;6810;63.824;20.288;2023-07-20T02:31:56;100001.59;;;14.07;70.64
13476;BME280;6810;63.824;20.288;2023-07-20T02:34:24;99994.50;;;14.06;70.91
13476;BME280;6810;63.824;20.288;2023-07-20T02:36:51;99994.63;;;14.05;70.69
13476;BME280;6810;63.824;20.288;2023-07-20T02:39:18;99995.63;;;14.04;70.91
13476;BME280;6810;63.824;20.288;2023-07-20T02:41:45;99991.25;;;14.03;70.62
13476;BME280;6810;63.824;20.288;2023-07-20T02:44:14;99992.22;;;14.02;71.08
13476;BME280;6810;63.824;20.288;2023-07-20T02:46:41;99975.97;;;13.93;71.11
13476;BME280;6810;63.824;20.288;2023-07-20T02:49:08;99996.03;;;13.99;71.35
13476;BME280;6810;63.824;20.288;2023-07-20T02:51:36;99988.84;;;14.00;71.36
13476;BME280;6810;63.824;20.288;2023-07-20T02:54:03;99975.34;;;13.90;71.40
13476;BME280;6810;63.824;20.288;2023-07-20T02:56:30;99994.19;;;14.00;71.67
13476;BME280;6810;63.824;20.288;2023-07-20T02:58:57;99987.97;;;13.99;71.29
13476;BME280;6810;63.824;20.288;2023-07-20T03:01:24;99988.72;;;14.01;71.55
13476;BME280;6810;63.824;20.288;2023-07-20T03:03:56;99986.84;;;14.02;72.09
13476;BME280;6810;63.824;20.288;2023-07-20T03:06:23;99980.19;;;13.96;71.97
13476;BME280;6810;63.824;20.288;2023-07-20T03:08:51;99991.13;;;14.04;71.84
13476;BME280;6810;63.824;20.288;2023-07-20T03:11:20;99985.78;;;14.04;72.04
13476;BME280;6810;63.824;20.288;2023-07-20T03:13:47;99987.34;;;14.07;71.92
13476;BME280;6810;63.824;20.288;2023-07-20T03:16:18;99987.19;;;14.08;71.92
13476;BME280;6810;63.824;20.288;2023-07-20T03:18:46;99987.19;;;14.08;72.15
13476;BME280;6810;63.824;20.288;2023-07-20T03:21:13;99987.06;;;14.10;72.30
13476;BME280;6810;63.824;20.288;2023-07-20T03:23:40;99979.91;;;14.10;72.23
13476;BME280;6810;63.824;20.288;2023-07-20T03:26:09;99994.72;;;14.14;72.43
13476;BME280;6810;63.824;20.288;2023-07-20T03:28:37;99993.75;;;14.15;72.66
13476;BME280;6810;63.824;20.288;2023-07-20T03:31:10;99991.91;;;14.16;72.84
13476;BME280;6810;63.824;20.288;2023-07-20T03:33:39;99990.81;;;14.18;73.01
13476;BME280;6810;63.824;20.288;2023-07-20T03:36:09;99986.16;;;14.20;72.83
13476;BME280;6810;63.824;20.288;2023-07-20T03:38:37;99986.88;;;14.22;72.65
13476;BME280;6810;63.824;20.288;2023-07-20T03:41:04;99980.53;;;14.23;72.59
13476;BME280;6810;63.824;20.288;2023-07-20T03:43:31;99985.69;;;14.26;72.97
13476;BME280;6810;63.824;20.288;2023-07-20T03:45:58;99981.91;;;14.29;73.06
13476;BME280;6810;63.824;20.288;2023-07-20T03:48:25;99982.59;;;14.31;73.08
13476;BME280;6810;63.824;20.288;2023-07-20T03:50:53;99967.03;;;14.25;73.35
13476;BME280;6810;63.824;20.288;2023-07-20T03:53:21;99980.38;;;14.36;73.11
13476;BME280;6810;63.824;20.288;2023-07-20T03:55:49;99979.13;;;14.40;73.24
13476;BME280;6810;63.824;20.288;2023-07-20T03:58:17;99973.63;;;14.41;73.34
13476;BME280;6810;63.824;20.288;2023-07-20T04:00:45;99932.28;;;14.23;73.59
13476;BME280;6810;63.824;20.288;2023-07-20T04:03:14;99950.88;;;14.36;73.50
13476;BME280;6810;63.824;20.288;2023-07-20T04:05:42;99969.34;;;14.50;73.42
13476;BME280;6810;63.824;20.288;2023-07-20T04:08:10;99951.09;;;14.44;73.53
13476;BME280;6810;63.824;20.288;2023-07-20T04:10:38;99969.78;;;14.55;73.56
13476;BME280;6810;63.824;20.288;2023-07-20T04:13:05;99970.34;;;14.58;73.52
13476;BME280;6810;63.824;20.288;2023-07-20T04:15:33;99966.56;;;14.61;73.81
13476;BME280;6810;63.824;20.288;2023-07-20T04:18:00;99976.91;;;14.65;74.28
13476;BME280;6810;63.824;20.288;2023-07-20T04:20:28;99972.09;;;14.69;73.82
13476;BME280;6810;63.824;20.288;2023-07-20T04:22:55;99972.69;;;14.72;73.71
13476;BME280;6810;63.824;20.288;2023-07-20T04:25:23;99966.91;;;14.77;73.77
13476;BME280;6810;63.824;20.288;2023-07-20T04:27:50;99970.06;;;14.82;73.82
13476;BME280;6810;63.824;20.288;2023-07-20T04:30:18;99969.66;;;14.86;74.04
13476;BME280;6810;63.824;20.288;2023-07-20T04:32:49;99953.41;;;14.88;73.83
13476;BME280;6810;63.824;20.288;2023-07-20T04:35:52;99960.22;;;14.92;73.60
13476;BME280;6810;63.824;20.288;2023-07-20T04:38:29;99958.84;;;14.97;73.64
13476;BME280;6810;63.824;20.288;2023-07-20T04:41:11;99945.97;;;15.01;73.38
13476;BME280;6810;63.824;20.288;2023-07-20T04:43:45;99955.34;;;15.06;73.84
13476;BME280;6810;63.824;20.288;2023-07-20T04:46:15;99953.94;;;15.12;73.35
13476;BME280;6810;63.824;20.288;2023-07-20T04:48:45;99957.34;;;15.14;73.51
13476;BME280;6810;63.824;20.288;2023-07-20T04:51:13;99956.78;;;15.20;73.72
13476;BME280;6810;63.824;20.288;2023-07-20T04:53:40;99950.13;;;15.24;73.46
13476;BME280;6810;63.824;20.288;2023-07-20T04:56:09;99955.09;;;15.28;73.63
13476;BME280;6810;63.824;20.288;2023-07-20T04:58:36;99962.75;;;15.33;73.42
13476;BME280;6810;63.824;20.288;2023-07-20T05:01:03;99958.69;;;15.38;73.52
13476;BME280;6810;63.824;20.288;2023-07-20T05:03:32;99944.13;;;15.41;73.89
13476;BME280;6810;63.824;20.288;2023-07-20T05:06:00;99956.03;;;15.48;73.63
13476;BME280;6810;63.824;20.288;2023-07-20T05:08:27;99953.75;;;15.53;73.74
13476;BME280;6810;63.824;20.288;2023-07-20T05:10:54;99953.34;;;15.57;73.54
13476;BME280;6810;63.824;20.288;2023-07-20T05:13:21;99953.78;;;15.63;73.26
13476;BME280;6810;63.824;20.288;2023-07-20T05:16:08;99946.16;;;15.68;73.47
13476;BME280;6810;63.824;20.288;2023-07-20T05:19:01;99947.28;;;15.75;73.46
13476;BME280;6810;63.824;20.288;2023-07-20T05:21:48;99944.03;;;15.81;73.35
13476;BME280;6810;63.824;20.288;2023-07-20T05:24:35;99942.63;;;15.86;73.09
13476;BME280;6810;63.824;20.288;2023-07-20T05:27:22;99947.44;;;15.92;73.32
13476;BME280;6810;63.824;20.288;2023-07-20T05:30:09;99943.47;;;15.96;72.51
13476;BME280;6810;63.824;20.288;2023-07-20T05:32:56;99946.44;;;16.03;73.13
13476;BME280;6810;63.824;20.288;2023-07-20T05:35:44;99953.94;;;16.09;73.15
13476;BME280;6810;63.824;20.288;2023-07-20T05:38:45;99953.38;;;16.15;72.55
13476;BME280;6810;63.824;20.288;2023-07-20T05:41:32;99954.63;;;16.20;72.73
13476;BME280;6810;63.824;20.288;2023-07-20T05:44:19;99949.66;;;16.25;72.47
13476;BME280;6810;63.824;20.288;2023-07-20T05:47:07;99950.25;;;16.29;72.96
13476;BME280;6810;63.824;20.288;2023-07-20T05:49:54;99937.31;;;16.32;72.91
13476;BME280;6810;63.824;20.288;2023-07-20T05:52:41;99936.22;;;16.35;72.80
13476;BME280;6810;63.824;20.288;2023-07-20T05:55:29;99907.34;;;16.27;72.83
13476;BME280;6810;63.824;20.288;2023-07-20T05:58:16;99953.19;;;16.54;72.67
13476;BME280;6810;63.824;20.288;2023-07-20T06:01:04;99940.97;;;16.60;72.77
13476;BME280;6810;63.824;20.288;2023-07-20T06:03:51;99949.31;;;16.66;72.39
13476;BME280;6810;63.824;20.288;2023-07-20T06:06:38;99952.44;;;16.71;71.40
13476;BME280;6810;63.824;20.288;2023-07-20T06:09:25;99938.38;;;16.77;71.18
13476;BME280;6810;63.824;20.288;2023-07-20T06:12:12;99940.22;;;16.77;71.64
13476;BME280;6810;63.824;20.288;2023-07-20T06:15:03;99945.41;;;16.88;71.56
13476;BME280;6810;63.824;20.288;2023-07-20T06:17:50;99942.28;;;16.92;70.81
13476;BME280;6810;63.824;20.288;2023-07-20T06:20:38;99948.06;;;16.97;70.64
13476;BME280;6810;63.824;20.288;2023-07-20T06:23:25;99939.53;;;17.02;71.17
13476;BME280;6810;63.824;20.288;2023-07-20T06:26:12;99936.41;;;17.06;70.79
13476;BME280;6810;63.824;20.288;2023-07-20T06:28:59;99937.63;;;17.12;70.87
13476;BME280;6810;63.824;20.288;2023-07-20T06:31:46;99939.06;;;17.16;70.30
13476;BME280;6810;63.824;20.288;2023-07-20T06:34:33;99937.75;;;17.20;70.37
13476;BME280;6810;63.824;20.288;2023-07-20T06:37:20;99923.34;;;17.11;70.76
13476;BME280;6810;63.824;20.288;2023-07-20T06:40:08;99938.00;;;17.26;70.68
13476;BME280;6810;63.824;20.288;2023-07-20T06:42:57;99932.00;;;17.33;70.74
13476;BME280;6810;63.824;20.288;2023-07-20T06:45:53;99930.69;;;17.37;70.84
13476;BME280;6810;63.824;20.288;2023-07-20T06:48:41;99932.09;;;17.41;70.45
13476;BME280;6810;63.824;20.288;2023-07-20T06:51:31;99935.06;;;17.47;70.60
13476;BME280;6810;63.824;20.288;2023-07-20T06:54:18;99936.31;;;17.53;69.49
13476;BME280;6810;63.824;20.288;2023-07-20T06:57:11;99936.69;;;17.58;69.40
13476;BME280;6810;63.824;20.288;2023-07-20T06:59:58;99925.44;;;17.62;69.70
13476;BME280;6810;63.824;20.288;2023-07-20T07:02:45;99935.63;;;17.68;69.04
13476;BME280;6810;63.824;20.288;2023-07-20T07:05:35;99928.22;;;17.70;68.98
13476;BME280;6810;63.824;20.288;2023-07-20T07:08:23;99940.78;;;17.79;69.50
13476;BME280;6810;63.824;20.288;2023-07-20T07:11:10;99938.78;;;17.81;68.63
13476;BME280;6810;63.824;20.288;2023-07-20T07:13:57;99940.69;;;17.89;68.32
13476;BME280;6810;63.824;20.288;2023-07-20T07:16:44;99926.81;;;17.84;68.56
13476;BME280;6810;63.824;20.288;2023-07-20T07:19:31;99940.78;;;17.97;68.23
13476;BME280;6810;63.824;20.288;2023-07-20T07:22:18;99944.84;;;18.01;67.59
13476;BME280;6810;63.824;20.288;2023-07-20T07:25:06;99941.00;;;18.03;67.96
13476;BME280;6810;63.824;20.288;2023-07-20T07:27:53;99922.88;;;17.96;67.11
13476;BME280;6810;63.824;20.288;2023-07-20T07:30:41;99948.47;;;18.09;67.05
13476;BME280;6810;63.824;20.288;2023-07-20T07:33:28;99944.63;;;18.12;66.76
13476;BME280;6810;63.824;20.288;2023-07-20T07:36:15;99941.59;;;18.15;66.54
13476;BME280;6810;63.824;20.288;2023-07-20T07:39:02;99941.28;;;18.18;66.45
13476;BME280;6810;63.824;20.288;2023-07-20T07:41:52;99932.03;;;18.20;66.81
13476;BME280;6810;63.824;20.288;2023-07-20T07:44:39;99945.91;;;18.25;66.78
13476;BME280;6810;63.824;20.288;2023-07-20T07:47:26;99939.34;;;18.28;66.76
13476;BME280;6810;63.824;20.288;2023-07-20T07:50:14;99945.44;;;18.30;66.27
13476;BME280;6810;63.824;20.288;2023-07-20T07:53:01;99943.28;;;18.33;66.83
13476;BME280;6810;63.824;20.288;2023-07-20T07:55:48;99917.91;;;18.26;66.33
13476;BME280;6810;63.824;20.288;2023-07-20T07:58:36;99934.41;;;18.41;66.29
13476;BME280;6810;63.824;20.288;2023-07-20T08:01:23;99935.13;;;18.43;66.26
13476;BME280;6810;63.824;20.288;2023-07-20T08:04:10;99907.66;;;18.30;66.57
13476;BME280;6810;63.824;20.288;2023-07-20T08:07:03;99928.38;;;18.47;66.07
13476;BME280;6810;63.824;20.288;2023-07-20T08:09:50;99931.16;;;18.55;65.92
13476;BME280;6810;63.824;20.288;2023-07-20T08:12:37;99929.66;;;18.60;66.43
13476;BME280;6810;63.824;20.288;2023-07-20T08:15:24;99936.94;;;18.68;65.60
13476;BME280;6810;63.824;20.288;2023-07-20T08:18:11;99939.00;;;18.74;65.52
13476;BME280;6810;63.824;20.288;2023-07-20T08:20:59;99939.38;;;18.79;65.32
13476;BME280;6810;63.824;20.288;2023-07-20T08:23:46;99936.19;;;18.83;65.43
13476;BME280;6810;63.824;20.288;2023-07-20T08:26:33;99936.41;;;18.90;64.98
13476;BME280;6810;63.824;20.288;2023-07-20T08:29:21;99909.88;;;18.85;64.84
13476;BME280;6810;63.824;20.288;2023-07-20T08:32:08;99936.78;;;19.03;64.02
13476;BME280;6810;63.824;20.288;2023-07-20T08:34:55;99934.78;;;19.05;64.00
13476;BME280;6810;63.824;20.288;2023-07-20T08:37:42;99932.78;;;19.07;63.40
13476;BME280;6810;63.824;20.288;2023-07-20T08:40:31;99931.06;;;19.06;63.44
13476;BME280;6810;63.824;20.288;2023-07-20T08:43:19;99933.09;;;19.04;63.18
13476;BME280;6810;63.824;20.288;2023-07-20T08:46:06;99931.56;;;19.02;63.95
13476;BME280;6810;63.824;20.288;2023-07-20T08:48:54;99930.91;;;19.00;63.71
13476;BME280;6810;63.824;20.288;2023-07-20T08:51:42;99930.19;;;18.98;63.62
13476;BME280;6810;63.824;20.288;2023-07-20T08:54:30;99931.84;;;18.90;63.31
13476;BME280;6810;63.824;20.288;2023-07-20T08:57:21;99930.31;;;18.88;63.74
13476;BME280;6810;63.824;20.288;2023-07-20T09:00:09;99926.75;;;18.87;63.98
13476;BME280;6810;63.824;20.288;2023-07-20T09:02:57;99932.00;;;18.89;64.33
13476;BME280;6810;63.824;20.288;2023-07-20T09:05:44;99938.63;;;18.94;64.34
13476;BME280;6810;63.824;20.288;2023-07-20T09:08:31;99911.91;;;18.83;63.95
13476;BME280;6810;63.824;20.288;2023-07-20T09:11:18;99945.28;;;19.08;64.44
13476;BME280;6810;63.824;20.288;2023-07-20T09:14:07;99936.69;;;19.13;64.25
13476;BME280;6810;63.824;20.288;2023-07-20T09:16:55;99939.22;;;19.14;64.66
13476;BME280;6810;63.824;20.288;2023-07-20T09:19:47;99941.59;;;19.17;65.01
13476;BME280;6810;63.824;20.288;2023-07-20T09:22:34;99942.28;;;19.19;65.94
13476;BME280;6810;63.824;20.288;2023-07-20T09:25:22;99952.75;;;19.22;66.62
13476;BME280;6810;63.824;20.288;2023-07-20T09:28:09;99943.63;;;19.23;65.94
13476;BME280;6810;63.824;20.288;2023-07-20T09:30:56;99916.56;;;19.15;65.83
13476;BME280;6810;63.824;20.288;2023-07-20T09:33:47;99928.97;;;19.26;66.63
13476;BME280;6810;63.824;20.288;2023-07-20T09:36:36;99936.28;;;19.33;66.14
13476;BME280;6810;63.824;20.288;2023-07-20T09:39:26;99938.66;;;19.36;66.17
13476;BME280;6810;63.824;20.288;2023-07-20T09:42:16;99920.72;;;19.35;66.21
13476;BME280;6810;63.824;20.288;2023-07-20T09:45:07;99913.00;;;19.40;65.18
13476;BME280;6810;63.824;20.288;2023-07-20T09:48:06;99915.06;;;19.54;65.18
13476;BME280;6810;63.824;20.288;2023-07-20T09:50:57;99924.72;;;19.81;65.05
13476;BME280;6810;63.824;20.288;2023-07-20T09:53:44;99928.31;;;20.37;63.85
13476;BME280;6810;63.824;20.288;2023-07-20T09:56:33;99920.38;;;21.07;61.64
13476;BME280;6810;63.824;20.288;2023-07-20T09:59:20;99928.28;;;21.55;60.25
13476;BME280;6810;63.824;20.288;2023-07-20T10:02:15;99911.16;;;21.54;59.80
13476;BME280;6810;63.824;20.288;2023-07-20T10:05:06;99936.97;;;21.50;59.68
13476;BME280;6810;63.824;20.288;2023-07-20T10:07:55;99924.03;;;21.22;60.33
13476;BME280;6810;63.824;20.288;2023-07-20T10:10:47;99924.81;;;21.00;60.50
13476;BME280;6810;63.824;20.288;2023-07-20T10:13:38;99925.69;;;20.84;60.70
13476;BME280;6810;63.824;20.288;2023-07-20T10:16:29;99938.25;;;20.69;61.49
13476;BME280;6810;63.824;20.288;2023-07-20T10:19:33;99938.28;;;20.53;61.09
13476;BME280;6810;63.824;20.288;2023-07-20T10:22:26;99942.00;;;20.36;60.91
13476;BME280;6810;63.824;20.288;2023-07-20T10:25:14;99943.03;;;20.27;61.21
13476;BME280;6810;63.824;20.288;2023-07-20T10:28:01;99923.78;;;20.14;61.39
13476;BME280;6810;63.824;20.288;2023-07-20T10:30:49;99933.88;;;20.12;61.27
13476;BME280;6810;63.824;20.288;2023-07-20T10:33:37;99941.13;;;20.11;61.53
13476;BME280;6810;63.824;20.288;2023-07-20T10:36:25;99929.34;;;20.28;61.33
13476;BME280;6810;63.824;20.288;2023-07-20T10:39:26;99937.63;;;20.43;60.96
13476;BME280;6810;63.824;20.288;2023-07-20T10:42:14;99932.00;;;20.52;59.81
13476;BME280;6810;63.824;20.288;2023-07-20T10:45:01;99931.88;;;20.54;59.55
13476;BME280;6810;63.824;20.288;2023-07-20T10:47:48;99933.19;;;20.58;59.73
13476;BME280;6810;63.824;20.288;2023-07-20T10:50:35;99928.47;;;20.60;60.35
13476;BME280;6810;63.824;20.288;2023-07-20T10:53:22;99931.69;;;20.55;60.95
13476;BME280;6810;63.824;20.288;2023-07-20T10:56:13;99930.50;;;20.50;61.30
13476;BME280;6810;63.824;20.288;2023-07-20T10:59:17;99924.06;;;20.51;61.42
13476;BME280;6810;63.824;20.288;2023-07-20T11:02:08;99926.28;;;20.47;60.88
13476;BME280;6810;63.824;20.288;2023-07-20T11:04:55;99928.81;;;20.41;60.46
13476;BME280;6810;63.824;20.288;2023-07-20T11:07:43;99934.75;;;20.36;60.56
13476;BME280;6810;63.824;20.288;2023-07-20T11:10:31;99911.41;;;20.19;60.68
13476;BME280;6810;63.824;20.288;2023-07-20T11:13:20;99942.34;;;20.33;60.99
13476;BME280;6810;63.824;20.288;2023-07-20T11:16:08;99938.47;;;20.35;60.90
13476;BME280;6810;63.824;20.288;2023-07-20T11:18:55;99944.22;;;20.40;60.29
13476;BME280;6810;63.824;20.288;2023-07-20T11:22:04;99926.28;;;20.31;60.61
13476;BME280;6810;63.824;20.288;2023-07-20T11:24:55;99944.56;;;20.37;60.51
13476;BME280;6810;63.824;20.288;2023-07-20T11:27:45;99941.53;;;20.24;61.05
13476;BME280;6810;63.824;20.288;2023-07-20T11:30:33;99947.28;;;20.21;61.84
13476;BME280;6810;63.824;20.288;2023-07-20T11:33:22;99945.41;;;20.14;62.26
13476;BME280;6810;63.824;20.288;2023-07-20T11:36:09;99941.00;;;20.05;62.69
13476;BME280;6810;63.824;20.288;2023-07-20T11:38:59;99946.03;;;19.92;63.82
13476;BME280;6810;63.824;20.288;2023-07-20T11:41:51;99945.19;;;19.75;64.69
13476;BME280;6810;63.824;20.288;2023-07-20T11:44:39;99953.94;;;19.69;64.93
13476;BME280;6810;63.824;20.288;2023-07-20T11:47:29;99945.16;;;19.67;65.48
13476;BME280;6810;63.824;20.288;2023-07-20T11:50:16;99948.53;;;19.69;65.65
13476;BME280;6810;63.824;20.288;2023-07-20T11:53:03;99927.44;;;19.73;65.26
13476;BME280;6810;63.824;20.288;2023-07-20T11:55:52;99929.78;;;19.84;65.70
13476;BME280;6810;63.824;20.288;2023-07-20T11:58:44;99932.19;;;20.03;65.36
13476;BME280;6810;63.824;20.288;2023-07-20T12:01:34;99932.53;;;20.24;65.21
13476;BME280;6810;63.824;20.288;2023-07-20T12:04:25;99931.69;;;20.47;64.64
13476;BME280;6810;63.824;20.288;2023-07-20T12:07:12;99930.59;;;20.73;63.45
13476;BME280;6810;63.824;20.288;2023-07-20T12:10:07;99923.78;;;21.01;62.72
13476;BME280;6810;63.824;20.288;2023-07-20T12:13:01;99928.41;;;21.31;62.47
13476;BME280;6810;63.824;20.288;2023-07-20T12:15:48;99924.69;;;21.62;61.70
13476;BME280;6810;63.824;20.288;2023-07-20T12:18:35;99920.94;;;21.94;61.23
13476;BME280;6810;63.824;20.288;2023-07-20T12:21:25;99920.66;;;22.26;60.24
13476;BME280;6810;63.824;20.288;2023-07-20T12:24:12;99918.25;;;22.46;59.20
13476;BME280;6810;63.824;20.288;2023-07-20T12:26:59;99913.66;;;22.69;60.15
13476;BME280;6810;63.824;20.288;2023-07-20T12:29:46;99908.59;;;22.95;60.13
13476;BME280;6810;63.824;20.288;2023-07-20T12:32:33;99913.47;;;23.14;60.01
13476;BME280;6810;63.824;20.288;2023-07-20T12:35:21;99912.03;;;23.32;61.01
13476;BME280;6810;63.824;20.288;2023-07-20T12:38:08;99909.38;;;23.53;62.45
13476;BME280;6810;63.824;20.288;2023-07-20T12:40:56;99912.13;;;23.74;60.44
13476;BME280;6810;63.824;20.288;2023-07-20T12:43:46;99906.38;;;23.84;59.46
13476;BME280;6810;63.824;20.288;2023-07-20T12:46:33;99913.19;;;23.95;57.97
13476;BME280;6810;63.824;20.288;2023-07-20T12:49:20;99917.78;;;23.94;58.34
13476;BME280;6810;63.824;20.288;2023-07-20T12:52:07;99909.72;;;23.86;57.99
13476;BME280;6810;63.824;20.288;2023-07-20T12:54:54;99912.13;;;23.74;57.64
13476;BME280;6810;63.824;20.288;2023-07-20T12:57:41;99910.38;;;23.67;56.63
13476;BME280;6810;63.824;20.288;2023-07-20T13:00:28;99924.09;;;23.59;57.18
13476;BME280;6810;63.824;20.288;2023-07-20T13:03:16;99924.38;;;23.49;56.00
13476;BME280;6810;63.824;20.288;2023-07-20T13:06:24;99917.66;;;23.31;55.55
13476;BME280;6810;63.824;20.288;2023-07-20T13:09:11;99918.44;;;23.10;55.37
13476;BME280;6810;63.824;20.288;2023-07-20T13:11:58;99952.75;;;23.11;55.45
13476;BME280;6810;63.824;20.288;2023-07-20T13:14:45;99957.72;;;22.93;55.92
13476;BME280;6810;63.824;20.288;2023-07-20T13:17:37;99961.16;;;22.73;55.58
13476;BME280;6810;63.824;20.288;2023-07-20T13:20:25;99958.00;;;22.47;54.22
13476;BME280;6810;63.824;20.288;2023-07-20T13:26:00;99954.56;;;21.85;55.25
13476;BME280;6810;63.824;20.288;2023-07-20T13:28:47;99954.94;;;21.74;56.15
13476;BME280;6810;63.824;20.288;2023-07-20T13:31:34;99951.63;;;21.64;56.15
13476;BME280;6810;63.824;20.288;2023-07-20T13:34:21;99952.91;;;21.45;55.34
13476;BME280;6810;63.824;20.288;2023-07-20T13:37:09;99958.31;;;21.15;55.83
13476;BME280;6810;63.824;20.288;2023-07-20T13:39:56;99961.41;;;20.88;56.33
13476;BME280;6810;63.824;20.288;2023-07-20T13:42:44;99957.69;;;20.73;58.03
13476;BME280;6810;63.824;20.288;2023-07-20T13:45:32;99956.03;;;20.72;58.88
13476;BME280;6810;63.824;20.288;2023-07-20T13:48:19;99948.41;;;20.67;59.46
13476;BME280;6810;63.824;20.288;2023-07-20T13:51:06;99949.09;;;20.61;59.48
13476;BME280;6810;63.824;20.288;2023-07-20T13:53:54;99950.78;;;20.62;59.44
13476;BME280;6810;63.824;20.288;2023-07-20T13:56:44;99945.72;;;20.51;59.09
13476;BME280;6810;63.824;20.288;2023-07-20T13:59:31;99948.97;;;20.38;59.56
13476;BME280;6810;63.824;20.288;2023-07-20T14:02:18;99949.47;;;20.34;60.42
13476;BME280;6810;63.824;20.288;2023-07-20T14:05:08;99942.19;;;20.34;60.48
13476;BME280;6810;63.824;20.288;2023-07-20T14:07:58;99941.84;;;20.37;61.36
13476;BME280;6810;63.824;20.288;2023-07-20T14:10:45;99943.88;;;20.43;62.07
13476;BME280;6810;63.824;20.288;2023-07-20T14:13:35;99951.66;;;20.46;62.78
13476;BME280;6810;63.824;20.288;2023-07-20T14:16:22;99950.97;;;20.52;63.23
13476;BME280;6810;63.824;20.288;2023-07-20T14:19:09;99923.56;;;20.39;63.80
13476;BME280;6810;63.824;20.288;2023-07-20T14:21:56;99953.84;;;20.51;64.73
13476;BME280;6810;63.824;20.288;2023-07-20T14:24:45;99945.06;;;20.41;65.02
13476;BME280;6810;63.824;20.288;2023-07-20T14:27:35;99945.06;;;20.33;66.03
13476;BME280;6810;63.824;20.288;2023-07-20T14:30:22;99955.88;;;20.33;66.22
13476;BME280;6810;63.824;20.288;2023-07-20T14:33:09;99953.34;;;20.31;66.15